Time;durP1;ratioP1;P1;durP2;ratioP2;P2;SDS_P1;SDS_P2;PMS_P1;PMS_P2;Temp;Humidity;BMP_temperature;BMP_pressure;BME280_temperature;BME280_humidity;BME280_pressure;Samples;Min_cycle;Max_cycle;Signal;HPM_P1;HPM_P2
2023/07/31 06:08:14;;;;;;;7.03;1.70;;;;;;;15.38;75.31;96550.72;2084739;28;20597;-63
2023/07/31 06:10:43;;;;;;;7.55;2.25;;;;;;;15.41;75.39;96553.16;2085847;28;20564;-64
2023/07/31 06:13:09;;;;;;;7.10;2.15;;;;;;;15.44;75.61;96552.09;2092024;27;20549;-63
2023/07/31 06:15:38;;;;;;;4.53;2.03;;;;;;;15.50;76.01;96547.28;2109036;27;20904;-65
2023/07/31 06:18:07;;;;;;;10.00;1.85;;;;;;;15.48;75.41;96546.53;2086628;28;20564;-67
2023/07/31 06:20:53;;;;;;;4.70;1.50;;;;;;;15.59;75.08;96556.38;2092432;28;20558;-65
2023/07/31 06:21:55;;;;;;;4.07;2.00;;;;;;;15.72;74.60;96550.28;2102296;28;20681;-65
2023/07/31 06:22:56;;;;;;;9.55;2.28;;;;;;;15.82;74.48;96544.34;2101183;28;20195;-65
2023/07/31 06:23:57;;;;;;;9.18;2.60;;;;;;;16.03;74.67;96549.06;2088157;27;20229;-65
2023/07/31 06:24:59;;;;;;;9.60;2.15;;;;;;;16.14;73.39;96554.47;2085503;28;20254;-65
2023/07/31 06:27:25;;;;;;;8.95;2.50;;;;;;;16.02;73.68;96550.03;2089121;27;20561;-65
2023/07/31 06:28:29;;;;;;;6.38;2.45;;;;;;;16.14;73.29;96556.25;2088876;28;20291;-68
2023/07/31 06:29:30;;;;;;;4.95;2.10;;;;;;;16.14;73.73;96541.28;2084087;28;20680;-68
2023/07/31 06:30:32;;;;;;;3.95;1.98;;;;;;;16.37;73.59;96544.13;2083865;28;20197;-68
2023/07/31 06:31:33;;;;;;;4.75;1.90;;;;;;;16.57;73.18;96542.72;2082418;28;20189;-68
2023/07/31 06:32:35;;;;;;;6.30;2.13;;;;;;;16.61;72.45;96548.63;2085925;28;20192;-68
2023/07/31 06:33:37;;;;;;;5.95;2.55;;;;;;;16.73;71.96;96539.84;2078553;28;20190;-68
2023/07/31 06:34:39;;;;;;;8.93;1.85;;;;;;;16.73;72.28;96534.56;2083072;28;20192;-68
2023/07/31 06:35:40;;;;;;;5.70;2.70;;;;;;;16.62;71.18;96529.22;2084595;28;20204;-68
2023/07/31 06:38:02;;;;;;;7.63;1.92;;;;;;;16.48;72.46;96540.72;2088352;28;20575;-65
2023/07/31 06:39:04;;;;;;;4.80;1.50;;;;;;;16.65;72.81;96548.28;2076202;28;20677;-65
2023/07/31 06:40:08;;;;;;;8.25;2.72;;;;;;;16.71;71.98;96548.81;2078316;28;20220;-65
2023/07/31 06:42:39;;;;;;;10.25;2.00;;;;;;;16.58;72.15;96544.41;2091434;28;20567;-65
2023/07/31 06:45:27;;;;;;;5.93;2.00;;;;;;;16.56;72.42;96551.59;2083815;28;20558;-65
2023/07/31 06:48:11;;;;;;;9.32;2.08;;;;;;;16.54;72.90;96552.66;2092635;27;20544;-65
2023/07/31 06:50:51;;;;;;;6.60;2.47;;;;;;;16.65;72.45;96550.09;2087057;28;20541;-65
2023/07/31 06:51:53;;;;;;;6.22;1.80;;;;;;;16.61;72.75;96546.84;2079310;28;20197;-64
2023/07/31 06:54:32;;;;;;;6.50;1.88;;;;;;;16.68;72.29;96556.94;2086294;28;20530;-65
2023/07/31 06:55:33;;;;;;;6.50;1.95;;;;;;;16.67;72.00;96555.25;2083211;28;20188;-66
2023/07/31 06:56:35;;;;;;;5.20;2.17;;;;;;;16.65;71.77;96564.09;2083224;28;20193;-67
2023/07/31 06:57:40;;;;;;;4.70;1.80;;;;;;;16.72;70.23;96550.50;2085848;28;20177;-67
2023/07/31 06:58:42;;;;;;;8.45;2.03;;;;;;;16.83;70.42;96552.38;2079186;28;20192;-67
2023/07/31 06:59:44;;;;;;;5.25;1.67;;;;;;;16.96;70.53;96551.44;2073716;28;20201;-67
2023/07/31 07:00:48;;;;;;;12.68;2.45;;;;;;;17.20;70.11;96540.03;2074577;28;20202;-67
2023/07/31 07:01:50;;;;;;;7.20;1.90;;;;;;;17.47;69.65;96541.59;2073715;28;20280;-67
2023/07/31 07:02:51;;;;;;;8.25;1.80;;;;;;;17.35;69.39;96547.78;2076843;28;20255;-67
2023/07/31 07:03:53;;;;;;;13.52;2.65;;;;;;;17.37;69.33;96546.72;2069379;28;20221;-68
2023/07/31 07:04:54;;;;;;;10.77;3.13;;;;;;;17.30;69.58;96542.84;2067025;28;20221;-68
2023/07/31 07:05:56;;;;;;;6.80;1.92;;;;;;;17.26;69.90;96544.03;2065873;28;20199;-68
2023/07/31 07:06:57;;;;;;;7.40;2.00;;;;;;;17.40;69.55;96546.47;2063664;28;20203;-67
2023/07/31 07:07:59;;;;;;;5.63;2.45;;;;;;;17.31;69.32;96544.53;2063461;28;20194;-68
2023/07/31 07:09:01;;;;;;;5.00;1.90;;;;;;;17.34;68.96;96543.47;2065964;28;20220;-67
2023/07/31 07:10:03;;;;;;;9.32;2.70;;;;;;;17.16;69.36;96540.38;2067314;28;20273;-67
2023/07/31 07:11:05;;;;;;;10.88;2.30;;;;;;;17.16;69.28;96538.56;2063383;28;20220;-67
2023/07/31 07:12:08;;;;;;;7.57;2.67;;;;;;;17.11;69.81;96541.53;2063222;28;20206;-68
2023/07/31 07:13:12;;;;;;;13.20;2.28;;;;;;;17.18;69.86;96536.69;2062646;28;20245;-67
2023/07/31 07:14:14;;;;;;;9.48;2.72;;;;;;;17.19;70.34;96543.66;2064250;28;20732;-67
2023/07/31 07:15:16;;;;;;;9.70;3.00;;;;;;;17.11;70.49;96538.91;2071078;28;20470;-67
2023/07/31 07:16:17;;;;;;;6.43;1.65;;;;;;;17.11;70.19;96535.44;2065730;28;20202;-67
2023/07/31 07:17:19;;;;;;;6.07;1.63;;;;;;;17.14;70.00;96533.41;2065226;28;20202;-67
2023/07/31 07:18:21;;;;;;;6.90;1.73;;;;;;;17.03;70.56;96528.06;2065258;28;20198;-67
2023/07/31 07:19:22;;;;;;;5.30;1.58;;;;;;;17.01;70.66;96537.06;2070198;28;20221;-67
2023/07/31 07:20:24;;;;;;;6.90;2.30;;;;;;;16.93;70.45;96532.34;2067688;28;20859;-67
2023/07/31 07:21:26;;;;;;;8.85;1.90;;;;;;;16.86;70.67;96531.06;2067377;28;20281;-67
2023/07/31 07:22:27;;;;;;;5.63;2.03;;;;;;;16.90;71.24;96532.50;2067130;28;20209;-67
2023/07/31 07:23:29;;;;;;;6.97;1.73;;;;;;;16.91;71.20;96528.97;2070832;28;20247;-67
2023/07/31 07:24:30;;;;;;;4.85;1.95;;;;;;;16.91;71.36;96523.69;2068846;28;20694;-67
2023/07/31 07:25:32;;;;;;;11.13;2.75;;;;;;;17.00;71.31;96530.09;2068573;28;20194;-67
2023/07/31 07:26:33;;;;;;;6.53;1.90;;;;;;;16.94;71.33;96521.66;2065674;28;20255;-67
2023/07/31 07:27:35;;;;;;;9.55;2.47;;;;;;;17.04;71.75;96526.28;2070758;28;20544;-67
2023/07/31 07:28:37;;;;;;;7.03;2.15;;;;;;;17.09;70.99;96527.63;2065621;28;20266;-67
2023/07/31 07:29:38;;;;;;;10.05;2.15;;;;;;;17.10;70.22;96518.78;2066426;28;20198;-67
2023/07/31 07:30:41;;;;;;;6.55;2.10;;;;;;;17.08;69.87;96519.84;2063231;28;20186;-67
2023/07/31 07:31:42;;;;;;;7.10;2.90;;;;;;;17.22;70.04;96527.56;2065734;28;20748;-68
2023/07/31 07:32:44;;;;;;;7.78;1.80;;;;;;;17.16;69.58;96520.09;2067071;28;20244;-67
2023/07/31 07:33:45;;;;;;;8.00;2.33;;;;;;;17.21;69.96;96522.41;2063162;28;20179;-67
2023/07/31 07:34:48;;;;;;;5.30;1.73;;;;;;;17.18;69.10;96510.28;2070124;28;20210;-68
2023/07/31 07:35:49;;;;;;;5.35;2.20;;;;;;;17.32;68.95;96530.38;2067588;28;20681;-67
2023/07/31 07:36:51;;;;;;;10.65;2.55;;;;;;;17.32;68.62;96525.13;2067498;28;20202;-68
2023/07/31 07:37:53;;;;;;;11.43;3.08;;;;;;;17.55;68.24;96523.38;2066178;28;20211;-67
2023/07/31 07:38:54;;;;;;;7.30;2.65;;;;;;;17.84;68.47;96522.13;2063937;28;20770;-67
2023/07/31 07:39:57;;;;;;;5.85;2.42;;;;;;;17.94;67.84;96523.16;2065582;28;20278;-67
2023/07/31 07:40:58;;;;;;;8.00;2.78;;;;;;;18.16;67.62;96529.44;2063437;28;20646;-67
2023/07/31 07:42:00;;;;;;;16.10;2.50;;;;;;;17.98;67.04;96523.75;2069101;28;20198;-68
2023/07/31 07:43:01;;;;;;;5.78;2.00;;;;;;;18.03;67.13;96530.41;2066211;28;20612;-68
2023/07/31 07:44:03;;;;;;;4.70;2.03;;;;;;;17.99;67.33;96522.81;2063926;28;20225;-68
2023/07/31 07:45:05;;;;;;;8.43;2.50;;;;;;;17.96;67.53;96523.88;2066805;28;20206;-67
2023/07/31 07:46:06;;;;;;;10.02;2.28;;;;;;;17.90;67.15;96525.19;2060268;28;20198;-67
2023/07/31 07:47:08;;;;;;;12.52;2.28;;;;;;;18.22;67.10;96516.59;2065068;28;20209;-67
2023/07/31 07:48:09;;;;;;;4.95;1.60;;;;;;;18.30;66.23;96520.44;2068205;28;20288;-68
2023/07/31 07:49:11;;;;;;;7.95;1.75;;;;;;;18.32;66.71;96516.72;2066319;28;20214;-68
2023/07/31 07:50:13;;;;;;;6.82;1.95;;;;;;;18.07;67.07;96518.63;2067900;28;20248;-67
2023/07/31 07:51:14;;;;;;;9.10;2.60;;;;;;;18.07;67.16;96517.78;2071886;28;20186;-68
2023/07/31 07:52:16;;;;;;;9.85;2.20;;;;;;;18.06;67.29;96516.94;2066006;28;20234;-68
2023/07/31 07:53:17;;;;;;;12.68;2.47;;;;;;;17.99;66.92;96521.03;2067491;28;20195;-68
2023/07/31 07:54:20;;;;;;;7.47;2.10;;;;;;;18.07;67.21;96521.25;2066392;28;20280;-68
2023/07/31 07:55:22;;;;;;;9.18;2.20;;;;;;;18.02;67.18;96522.59;2067600;28;20285;-68
2023/07/31 07:56:26;;;;;;;6.65;2.75;;;;;;;17.95;66.67;96525.69;2066295;28;20198;-68
2023/07/31 07:57:28;;;;;;;8.05;2.13;;;;;;;18.13;66.74;96519.94;2064554;28;20641;-68
2023/07/31 07:58:29;;;;;;;6.75;2.90;;;;;;;18.13;66.36;96516.47;2065432;28;20237;-68
2023/07/31 07:59:31;;;;;;;7.55;2.58;;;;;;;18.23;66.27;96520.94;2071203;28;20677;-68
2023/07/31 08:00:32;;;;;;;5.70;1.90;;;;;;;18.52;66.17;96523.06;2066662;28;20206;-68
2023/07/31 08:01:34;;;;;;;5.93;2.17;;;;;;;18.57;66.68;96522.72;2063650;28;20548;-68
2023/07/31 08:02:35;;;;;;;10.70;2.00;;;;;;;18.58;66.14;96519.94;2068586;28;20200;-68
2023/07/31 08:03:37;;;;;;;6.00;2.55;;;;;;;18.84;65.13;96525.00;2064405;28;20201;-68
2023/07/31 08:04:38;;;;;;;6.18;2.30;;;;;;;18.79;65.14;96518.38;2069847;28;20199;-68
2023/07/31 08:05:40;;;;;;;4.70;2.17;;;;;;;18.62;65.14;96523.19;2067306;28;20174;-68
2023/07/31 08:06:41;;;;;;;5.95;1.90;;;;;;;18.67;65.24;96525.50;2058321;28;20199;-68
2023/07/31 08:07:43;;;;;;;12.57;2.40;;;;;;;18.54;65.76;96523.81;2059939;28;20615;-68
2023/07/31 08:08:44;;;;;;;5.47;1.90;;;;;;;18.47;65.54;96514.66;2061511;28;20199;-68
2023/07/31 08:09:46;;;;;;;12.95;3.92;;;;;;;18.43;65.85;96519.34;2059924;28;20337;-68
2023/07/31 08:10:48;;;;;;;6.68;2.15;;;;;;;18.50;66.05;96517.09;2063568;28;20207;-68
2023/07/31 08:11:49;;;;;;;6.82;2.00;;;;;;;18.31;65.27;96509.75;2065999;28;20201;-68
2023/07/31 08:12:51;;;;;;;7.10;1.92;;;;;;;18.32;66.48;96510.59;2063779;28;20597;-68
2023/07/31 08:13:52;;;;;;;6.45;2.70;;;;;;;18.08;65.54;96506.25;2064205;28;20194;-68
2023/07/31 08:14:54;;;;;;;5.90;2.13;;;;;;;18.20;67.01;96509.75;2057827;28;20211;-68
2023/07/31 08:15:55;;;;;;;9.57;2.28;;;;;;;18.24;66.70;96516.47;2063365;28;20696;-68
2023/07/31 08:16:57;;;;;;;6.20;1.70;;;;;;;18.11;66.11;96509.50;2059785;28;20586;-68
2023/07/31 08:17:58;;;;;;;8.88;2.15;;;;;;;18.15;66.15;96506.63;2058640;28;20195;-68
2023/07/31 08:19:00;;;;;;;8.18;2.20;;;;;;;18.14;66.52;96508.41;2059359;28;20223;-68
2023/07/31 08:20:02;;;;;;;9.18;2.40;;;;;;;18.09;66.39;96505.28;2060691;28;20203;-68
2023/07/31 08:21:03;;;;;;;20.05;3.08;;;;;;;17.95;67.20;96501.06;2063260;28;20207;-68
2023/07/31 08:22:05;;;;;;;7.28;2.20;;;;;;;17.85;66.55;96506.19;2065281;28;20202;-68
2023/07/31 08:23:06;;;;;;;10.65;2.58;;;;;;;17.75;67.05;96502.56;2062304;28;20207;-68
2023/07/31 08:24:08;;;;;;;7.40;2.33;;;;;;;17.77;67.45;96505.94;2057153;28;20223;-68
2023/07/31 08:25:09;;;;;;;7.82;2.40;;;;;;;17.91;67.83;96508.34;2060003;28;20286;-68
2023/07/31 08:26:19;;;;;;;5.35;2.60;;;;;;;17.92;67.24;96507.41;2057853;28;20531;-68
2023/07/31 08:27:20;;;;;;;9.98;2.72;;;;;;;17.86;67.08;96509.66;2060789;28;20244;-68
2023/07/31 08:28:22;;;;;;;7.85;2.55;;;;;;;17.78;67.56;96502.34;2058139;28;20207;-68
2023/07/31 08:29:24;;;;;;;11.18;2.40;;;;;;;17.89;67.55;96509.44;2058145;28;20241;-68
2023/07/31 08:30:25;;;;;;;6.45;2.15;;;;;;;17.89;67.56;96509.44;2065281;28;20190;-67
2023/07/31 08:31:29;;;;;;;4.22;2.05;;;;;;;17.83;67.51;96513.38;2059075;28;20273;-68
2023/07/31 08:32:30;;;;;;;5.57;2.85;;;;;;;17.80;67.82;96497.75;2061493;28;20241;-68
2023/07/31 08:33:32;;;;;;;8.00;2.40;;;;;;;17.79;67.90;96499.56;2062006;28;20537;-68
2023/07/31 08:34:33;;;;;;;8.13;2.70;;;;;;;17.75;67.83;96502.56;2060516;28;20643;-68
2023/07/31 08:35:35;;;;;;;7.47;2.53;;;;;;;17.93;67.95;96502.97;2065070;28;20202;-68
2023/07/31 08:36:36;;;;;;;6.38;3.28;;;;;;;17.97;67.71;96500.94;2065126;28;20290;-68
2023/07/31 08:37:38;;;;;;;6.05;2.00;;;;;;;18.08;68.06;96493.88;2061244;28;20199;-68
2023/07/31 08:38:40;;;;;;;6.97;2.38;;;;;;;18.14;67.51;96499.66;2057180;28;20210;-68
2023/07/31 08:39:41;;;;;;;7.65;2.72;;;;;;;18.03;67.53;96503.13;2058367;28;20211;-68
2023/07/31 08:40:43;;;;;;;6.55;2.10;;;;;;;18.16;67.40;96498.56;2061080;28;20191;-68
2023/07/31 08:41:44;;;;;;;6.63;2.40;;;;;;;18.16;67.67;96490.66;2058273;28;20199;-68
2023/07/31 08:42:48;;;;;;;8.50;3.20;;;;;;;18.16;67.56;96489.81;2057535;28;20274;-68
2023/07/31 08:43:51;;;;;;;6.53;2.28;;;;;;;18.31;67.56;96493.03;2057166;28;20230;-68
2023/07/31 08:44:54;;;;;;;10.23;2.50;;;;;;;18.33;66.78;96491.97;2058690;28;20199;-68
2023/07/31 08:45:56;;;;;;;7.05;2.10;;;;;;;18.19;67.28;96497.50;2064531;28;20219;-68
2023/07/31 08:46:58;;;;;;;9.00;2.60;;;;;;;18.19;67.41;96495.69;2058249;28;20677;-68
2023/07/31 08:48:00;;;;;;;7.07;2.20;;;;;;;18.17;66.92;96487.06;2062176;28;20310;-68
2023/07/31 08:49:05;;;;;;;11.25;2.97;;;;;;;18.11;66.92;96498.91;2062677;28;20645;-68
2023/07/31 08:50:07;;;;;;;7.70;2.53;;;;;;;18.21;67.45;96500.88;2057749;28;20623;-68
2023/07/31 08:51:09;;;;;;;10.88;2.95;;;;;;;18.20;67.67;96492.09;2062137;28;20530;-68
2023/07/31 08:52:10;;;;;;;7.50;2.80;;;;;;;18.18;66.82;96501.94;2058194;28;20202;-68
2023/07/31 08:53:12;;;;;;;6.80;2.20;;;;;;;18.26;66.90;96496.91;2060510;28;20818;-68
2023/07/31 08:54:13;;;;;;;6.35;1.95;;;;;;;18.36;66.47;96496.16;2059640;28;20223;-68
2023/07/31 08:55:15;;;;;;;12.65;2.72;;;;;;;18.22;66.52;96495.47;2057329;28;20237;-68
2023/07/31 08:56:17;;;;;;;7.90;2.47;;;;;;;18.16;66.19;96484.53;2058774;28;20289;-68
2023/07/31 08:57:19;;;;;;;11.63;2.05;;;;;;;18.02;66.83;96491.72;2058239;28;20646;-68
2023/07/31 08:58:21;;;;;;;10.80;2.10;;;;;;;18.15;66.72;96501.34;2058095;28;20280;-68
2023/07/31 08:59:24;;;;;;;9.60;2.65;;;;;;;18.17;67.06;96480.91;2057079;28;20218;-68
2023/07/31 09:00:26;;;;;;;7.55;2.53;;;;;;;18.17;66.91;96468.56;2059847;28;20203;-68
2023/07/31 09:01:30;;;;;;;8.93;2.40;;;;;;;18.21;67.58;96471.81;2062345;28;20624;-68
2023/07/31 09:02:39;;;;;;;6.63;2.30;;;;;;;18.24;66.03;96474.19;2063781;28;20195;-68
2023/07/31 09:03:41;;;;;;;13.35;2.42;;;;;;;18.28;66.44;96468.56;2058524;28;20226;-68
2023/07/31 09:04:43;;;;;;;6.80;2.58;;;;;;;18.27;66.47;96472.16;2060071;28;20221;-68
2023/07/31 09:05:46;;;;;;;9.85;2.70;;;;;;;18.23;66.36;96476.00;2058239;28;20286;-68
2023/07/31 09:06:48;;;;;;;7.07;2.55;;;;;;;18.36;67.21;96470.59;2060005;28;20183;-68
2023/07/31 09:07:51;;;;;;;6.88;2.30;;;;;;;18.41;66.99;96475.50;2064041;28;20246;-68
2023/07/31 09:08:52;;;;;;;6.00;2.17;;;;;;;18.38;67.24;96468.66;2057954;28;20310;-68
2023/07/31 09:09:54;;;;;;;8.70;2.80;;;;;;;18.42;66.60;96474.53;2058245;28;20203;-68
2023/07/31 09:10:59;;;;;;;6.60;2.60;;;;;;;18.31;66.93;96469.25;2058128;28;20203;-68
2023/07/31 09:12:01;;;;;;;8.43;2.78;;;;;;;18.28;67.54;96480.91;2057996;28;20207;-68
2023/07/31 09:13:04;;;;;;;7.18;2.38;;;;;;;18.30;67.30;96479.00;2058706;28;20183;-68
2023/07/31 09:14:08;;;;;;;6.28;2.20;;;;;;;18.41;67.91;96481.63;2059039;28;20252;-68
2023/07/31 09:15:11;;;;;;;6.20;2.70;;;;;;;18.38;67.45;96475.75;2061543;28;20250;-68
2023/07/31 09:16:30;;;;;;;6.05;2.45;;;;;;;18.43;67.34;96478.88;2061948;28;20248;-68
2023/07/31 09:17:34;;;;;;;16.00;2.45;;;;;;;18.43;66.86;96468.28;2059159;28;20238;-68
2023/07/31 09:18:56;;;;;;;15.60;3.08;;;;;;;18.49;66.31;96480.19;2063083;28;20187;-68
2023/07/31 09:20:12;;;;;;;10.65;2.25;;;;;;;18.46;66.65;96470.69;2057543;28;20183;-68
2023/07/31 09:21:13;;;;;;;12.23;3.30;;;;;;;18.52;66.79;96464.09;2061624;28;20604;-68
2023/07/31 09:22:15;;;;;;;5.70;2.60;;;;;;;18.66;66.93;96474.38;2062931;28;20252;-68
2023/07/31 09:23:17;;;;;;;8.68;2.30;;;;;;;18.63;65.91;96472.00;2058010;28;20611;-68
2023/07/31 09:24:29;;;;;;;7.18;2.60;;;;;;;18.51;65.65;96457.97;2065031;28;20272;-68
2023/07/31 09:25:31;;;;;;;9.38;2.40;;;;;;;18.80;66.31;96470.63;2060644;28;20198;-68
2023/07/31 09:26:34;;;;;;;7.82;2.65;;;;;;;18.82;65.31;96475.81;2057715;28;20172;-68
2023/07/31 09:27:48;;;;;;;6.30;2.75;;;;;;;18.76;65.60;96471.84;2062529;28;20591;-68
2023/07/31 09:28:49;;;;;;;5.70;2.85;;;;;;;18.79;65.04;96462.81;2060141;28;20270;-68
2023/07/31 09:30:00;;;;;;;8.77;2.78;;;;;;;19.13;65.46;96460.94;2065623;28;20278;-68
2023/07/31 09:31:02;;;;;;;7.03;2.60;;;;;;;19.35;64.34;96465.31;2065520;28;20604;-68
2023/07/31 09:32:03;;;;;;;6.70;2.50;;;;;;;19.48;63.02;96456.34;2063301;28;20678;-68
2023/07/31 09:33:07;;;;;;;10.43;2.55;;;;;;;19.90;62.20;96449.22;2062887;28;20210;-68
2023/07/31 09:34:11;;;;;;;13.07;2.55;;;;;;;19.95;63.01;96448.84;2065142;28;20218;-68
2023/07/31 09:35:20;;;;;;;6.57;2.20;;;;;;;20.18;62.87;96448.69;2059112;28;20195;-68
2023/07/31 09:36:25;;;;;;;4.57;2.30;;;;;;;19.84;61.90;96446.28;2061706;28;20620;-68
2023/07/31 09:37:29;;;;;;;7.53;2.72;;;;;;;19.94;62.08;96455.13;2062369;28;20199;-68
2023/07/31 09:38:30;;;;;;;6.93;1.95;;;;;;;19.79;61.64;96451.09;2059414;28;20290;-68
2023/07/31 09:39:32;;;;;;;10.65;2.92;;;;;;;19.63;62.18;96440.97;2057023;28;20311;-69
2023/07/31 09:40:36;;;;;;;7.50;3.00;;;;;;;19.73;61.26;96441.84;2057815;28;20803;-67
2023/07/31 09:41:39;;;;;;;9.00;2.55;;;;;;;20.01;60.83;96439.53;2060310;28;20281;-68
2023/07/31 09:42:40;;;;;;;6.53;2.53;;;;;;;20.29;59.63;96440.63;2057885;28;20646;-68
2023/07/31 09:43:53;;;;;;;4.35;2.15;;;;;;;20.53;58.98;96440.28;2058681;28;20432;-68
2023/07/31 09:45:08;;;;;;;13.02;3.40;;;;;;;20.69;57.78;96437.09;2060544;28;20641;-68
2023/07/31 09:46:13;;;;;;;5.60;2.50;;;;;;;21.03;57.84;96431.44;2059107;28;20685;-68
2023/07/31 09:47:25;;;;;;;8.35;2.33;;;;;;;21.12;57.36;96431.59;2058703;28;20651;-68
2023/07/31 09:48:28;;;;;;;11.13;2.72;;;;;;;21.23;57.65;96426.16;2060475;28;20194;-68
2023/07/31 09:49:29;;;;;;;7.28;2.60;;;;;;;21.19;56.76;96432.69;2063328;28;20229;-68
2023/07/31 09:50:31;;;;;;;10.93;2.58;;;;;;;21.22;57.14;96427.13;2064200;28;20230;-68
2023/07/31 09:51:37;;;;;;;11.88;2.92;;;;;;;21.25;56.97;96429.50;2061669;28;20205;-68
2023/07/31 09:52:39;;;;;;;6.45;2.40;;;;;;;21.24;57.20;96422.50;2059589;28;20337;-68
2023/07/31 09:53:49;;;;;;;9.60;3.10;;;;;;;21.17;56.63;96429.38;2058755;28;20199;-68
2023/07/31 09:54:51;;;;;;;10.38;2.95;;;;;;;20.78;57.41;96424.84;2058860;28;20548;-68
2023/07/31 09:55:53;;;;;;;6.65;2.67;;;;;;;20.58;57.98;96428.44;2057971;28;20567;-68
2023/07/31 09:56:58;;;;;;;4.70;2.33;;;;;;;20.35;58.46;96410.94;2058812;28;20253;-68
2023/07/31 09:58:04;;;;;;;9.73;2.42;;;;;;;20.46;58.62;96427.72;2058439;28;20677;-68
2023/07/31 09:59:08;;;;;;;8.60;3.22;;;;;;;20.47;59.03;96421.44;2062935;28;20258;-68
2023/07/31 10:00:11;;;;;;;8.35;2.95;;;;;;;20.69;59.08;96420.34;2059867;28;20203;-68
2023/07/31 10:01:13;;;;;;;8.95;2.25;;;;;;;20.52;59.09;96425.34;2058856;28;20713;-68
2023/07/31 10:02:21;;;;;;;8.65;2.92;;;;;;;20.43;59.53;96420.88;2062286;28;20195;-68
2023/07/31 10:03:23;;;;;;;6.18;2.40;;;;;;;20.50;59.65;96418.50;2060829;28;20199;-68
2023/07/31 10:04:27;;;;;;;6.38;2.50;;;;;;;20.77;59.00;96425.00;2057618;28;20232;-68
2023/07/31 10:05:34;;;;;;;10.57;2.70;;;;;;;20.93;57.93;96422.66;2059703;28;20198;-68
2023/07/31 10:06:36;;;;;;;6.53;2.80;;;;;;;20.82;57.97;96418.31;2061524;28;20715;-67
2023/07/31 10:07:41;;;;;;;4.80;2.38;;;;;;;21.00;56.62;96420.25;2057896;28;20702;-67
2023/07/31 10:08:47;;;;;;;11.13;2.67;;;;;;;20.98;57.50;96406.31;2063730;28;20665;-68
2023/07/31 10:09:49;;;;;;;8.60;2.75;;;;;;;21.07;57.26;96413.44;2056614;28;20203;-68
2023/07/31 10:10:51;;;;;;;6.38;2.08;;;;;;;21.16;57.19;96417.06;2056612;28;20285;-68
2023/07/31 10:12:00;;;;;;;6.43;2.30;;;;;;;21.06;57.81;96417.06;2056441;28;20214;-68
2023/07/31 10:13:02;;;;;;;11.05;2.85;;;;;;;21.03;57.67;96412.88;2059772;28;20194;-68
2023/07/31 10:14:05;;;;;;;8.35;2.83;;;;;;;21.01;58.53;96416.63;2058562;28;20222;-68
2023/07/31 10:15:08;;;;;;;13.00;2.90;;;;;;;20.91;57.93;96411.31;2060004;28;20198;-68
2023/07/31 10:16:11;;;;;;;8.02;2.45;;;;;;;20.71;58.11;96407.84;2056617;28;20212;-68
2023/07/31 10:17:14;;;;;;;7.47;2.55;;;;;;;21.08;57.78;96406.28;2056680;28;20694;-68
2023/07/31 10:18:17;;;;;;;9.15;2.20;;;;;;;21.22;58.27;96403.22;2056435;28;20195;-68
2023/07/31 10:19:20;;;;;;;9.15;2.80;;;;;;;21.55;57.87;96401.13;2056082;28;20219;-68
2023/07/31 10:20:22;;;;;;;7.30;2.33;;;;;;;21.47;57.55;96403.59;2061162;28;20602;-68
2023/07/31 10:21:25;;;;;;;7.25;2.58;;;;;;;21.57;57.64;96404.47;2058622;28;20195;-68
2023/07/31 10:22:27;;;;;;;9.75;2.83;;;;;;;21.49;57.29;96412.28;2062874;28;20206;-68
2023/07/31 10:23:28;;;;;;;9.27;2.50;;;;;;;21.51;56.78;96410.34;2060233;28;20202;-68
2023/07/31 10:24:31;;;;;;;7.18;2.33;;;;;;;21.44;57.24;96410.03;2057933;28;20269;-68
2023/07/31 10:25:33;;;;;;;6.82;2.83;;;;;;;21.28;58.19;96405.34;2059407;28;20282;-68
2023/07/31 10:26:35;;;;;;;7.60;2.38;;;;;;;21.07;57.79;96405.47;2064076;28;20237;-68
2023/07/31 10:27:38;;;;;;;7.93;2.53;;;;;;;20.92;57.74;96397.06;2059198;28;20231;-68
2023/07/31 10:28:41;;;;;;;10.10;2.30;;;;;;;20.91;57.84;96394.56;2057425;28;20253;-68
2023/07/31 10:29:47;;;;;;;7.18;2.65;;;;;;;21.39;57.24;96392.88;2058375;28;20199;-68
2023/07/31 10:30:51;;;;;;;10.25;2.75;;;;;;;21.85;55.68;96386.78;2058687;28;20199;-68
2023/07/31 10:31:56;;;;;;;9.93;2.88;;;;;;;22.20;56.20;96383.56;2060456;28;20246;-68
2023/07/31 10:32:58;;;;;;;13.07;2.72;;;;;;;22.00;56.58;96387.16;2061207;28;20199;-68
2023/07/31 10:34:00;;;;;;;9.25;2.70;;;;;;;21.66;56.33;96385.03;2057854;28;20350;-68
2023/07/31 10:35:04;;;;;;;7.43;2.28;;;;;;;21.65;56.57;96390.50;2059423;28;20202;-68
2023/07/31 10:36:21;;;;;;;6.57;2.65;;;;;;;22.00;55.40;96387.16;2060132;28;20211;-68
2023/07/31 10:37:49;;;;;;;8.25;3.00;;;;;;;22.18;55.61;96378.38;2059965;28;20237;-68
2023/07/31 10:38:51;;;;;;;8.05;2.45;;;;;;;22.31;55.22;96389.50;2057724;28;20259;-68
2023/07/31 10:40:09;;;;;;;7.65;2.63;;;;;;;22.37;54.54;96389.94;2059840;28;20848;-68
2023/07/31 10:41:11;;;;;;;9.32;3.08;;;;;;;22.34;54.53;96385.72;2060436;28;20209;-68
2023/07/31 10:42:13;;;;;;;7.15;2.50;;;;;;;22.53;53.63;96389.28;2059554;28;20237;-68
2023/07/31 10:43:26;;;;;;;11.10;2.60;;;;;;;22.48;54.77;96387.06;2057318;28;20203;-68
2023/07/31 10:44:28;;;;;;;6.40;2.55;;;;;;;22.33;53.89;96390.22;2058527;28;20230;-68
2023/07/31 10:45:36;;;;;;;8.13;2.90;;;;;;;22.24;54.94;96387.59;2061178;28;20666;-68
2023/07/31 10:46:38;;;;;;;8.85;3.72;;;;;;;22.29;55.15;96378.19;2056612;28;20269;-68
2023/07/31 10:47:44;;;;;;;8.65;2.83;;;;;;;22.48;54.95;96385.25;2056890;28;20210;-68
2023/07/31 10:48:58;;;;;;;7.80;2.75;;;;;;;22.25;54.93;96389.28;2056469;28;20203;-68
2023/07/31 10:50:19;;;;;;;9.45;2.78;;;;;;;21.92;54.59;96387.03;2056817;28;20237;-68
2023/07/31 10:51:22;;;;;;;5.63;3.15;;;;;;;22.02;54.94;96387.81;2057088;28;20264;-68
2023/07/31 10:52:26;;;;;;;14.85;3.63;;;;;;;21.83;55.51;96372.78;2059297;28;20248;-68
2023/07/31 10:53:32;;;;;;;5.05;2.47;;;;;;;22.15;56.13;96382.16;2058924;28;20195;-68
2023/07/31 10:54:34;;;;;;;6.78;3.03;;;;;;;22.07;55.22;96386.53;2058652;28;20233;-68
2023/07/31 10:55:41;;;;;;;5.53;2.33;;;;;;;22.27;55.42;96381.97;2060548;28;20210;-68
2023/07/31 10:56:47;;;;;;;8.95;3.35;;;;;;;22.40;54.93;96381.66;2060935;28;20210;-68
2023/07/31 10:57:49;;;;;;;8.32;3.10;;;;;;;22.56;53.85;96373.03;2063865;28;20322;-68
2023/07/31 10:59:01;;;;;;;7.85;2.97;;;;;;;22.89;54.02;96378.66;2059272;28;20721;-68
2023/07/31 11:00:19;;;;;;;7.05;3.08;;;;;;;22.99;53.63;96380.28;2060028;28;20572;-68
2023/07/31 11:01:21;;;;;;;14.15;3.10;;;;;;;22.34;53.32;96375.09;2058917;28;20281;-68
2023/07/31 11:02:31;;;;;;;8.18;2.80;;;;;;;22.09;53.83;96392.56;2060206;28;20335;-68
2023/07/31 11:03:44;;;;;;;8.48;3.20;;;;;;;21.89;55.37;96397.97;2060792;28;20504;-68
2023/07/31 11:05:05;;;;;;;6.43;2.65;;;;;;;21.60;55.08;96379.41;2058154;28;20573;-68
2023/07/31 11:06:07;;;;;;;8.27;2.75;;;;;;;21.54;56.28;96380.81;2058269;28;20194;-68
2023/07/31 11:07:10;;;;;;;9.13;2.55;;;;;;;21.55;56.34;96379.88;2056251;28;20290;-68
2023/07/31 11:08:13;;;;;;;8.27;3.63;;;;;;;21.49;56.89;96377.75;2056635;28;20662;-68
2023/07/31 11:09:14;;;;;;;9.82;2.70;;;;;;;21.39;56.12;96387.56;2055704;28;20778;-68
2023/07/31 11:10:17;;;;;;;8.18;3.03;;;;;;;21.11;55.94;96390.94;2056244;28;20237;-68
2023/07/31 11:11:20;;;;;;;6.30;2.58;;;;;;;21.04;56.75;96384.53;2056490;28;20198;-68
2023/07/31 11:12:23;;;;;;;7.88;2.88;;;;;;;20.84;56.69;96387.16;2059991;28;20329;-68
2023/07/31 11:13:24;;;;;;;6.85;2.90;;;;;;;20.68;56.18;96381.53;2056238;28;20199;-68
2023/07/31 11:14:26;;;;;;;7.35;2.97;;;;;;;20.60;57.00;96389.34;2063426;28;20221;-68
2023/07/31 11:15:27;;;;;;;7.65;3.92;;;;;;;20.64;57.28;96385.44;2059904;28;20199;-68
2023/07/31 11:16:29;;;;;;;7.20;3.42;;;;;;;20.71;57.66;96387.44;2060262;28;20582;-68
2023/07/31 11:17:31;;;;;;;7.15;3.13;;;;;;;20.88;57.04;96383.25;2057272;28;20203;-68
2023/07/31 11:18:32;;;;;;;12.50;3.05;;;;;;;20.96;57.24;96387.03;2056655;28;20195;-68
2023/07/31 11:19:37;;;;;;;14.07;2.67;;;;;;;21.09;57.40;96384.09;2060738;28;20221;-68
2023/07/31 11:20:39;;;;;;;6.55;2.60;;;;;;;21.12;57.23;96383.81;2060478;28;20249;-68
2023/07/31 11:21:40;;;;;;;5.78;2.85;;;;;;;21.43;57.54;96380.97;2056193;28;20186;-68
2023/07/31 11:22:43;;;;;;;6.75;2.80;;;;;;;21.61;56.44;96387.28;2062131;28;20190;-68
2023/07/31 11:23:53;;;;;;;12.02;3.90;;;;;;;21.38;56.67;96378.75;2058726;28;20191;-68